sensor_id;sensor_type;location;lat;lon;timestamp;P1;durP1;ratioP1;P2;durP2;ratioP2
26484;SDS011;18083;50.560;7.262;2023-05-16T00:01:18;12.90;;;8.00;;
26484;SDS011;18083;50.560;7.262;2023-05-16T00:03:45;13.83;;;9.03;;
26484;SDS011;18083;50.560;7.262;2023-05-16T00:06:13;10.82;;;7.87;;
26484;SDS011;18083;50.560;7.262;2023-05-16T00:08:40;15.15;;;9.40;;
26484;SDS011;18083;50.560;7.262;2023-05-16T00:11:08;11.97;;;8.00;;
26484;SDS011;18083;50.560;7.262;2023-05-16T00:13:35;15.40;;;8.15;;
26484;SDS011;18083;50.560;7.262;2023-05-16T00:16:02;12.47;;;8.28;;
26484;SDS011;18083;50.560;7.262;2023-05-16T00:18:30;11.65;;;7.60;;
26484;SDS011;18083;50.560;7.262;2023-05-16T00:20:57;11.78;;;7.67;;
26484;SDS011;18083;50.560;7.262;2023-05-16T00:23:25;13.48;;;7.70;;
26484;SDS011;18083;50.560;7.262;2023-05-16T00:25:52;12.55;;;7.83;;
26484;SDS011;18083;50.560;7.262;2023-05-16T00:28:20;13.03;;;7.25;;
26484;SDS011;18083;50.560;7.262;2023-05-16T00:30:47;12.35;;;7.42;;
26484;SDS011;18083;50.560;7.262;2023-05-16T00:33:14;10.55;;;6.87;;
26484;SDS011;18083;50.560;7.262;2023-05-16T00:35:42;15.17;;;7.30;;
26484;SDS011;18083;50.560;7.262;2023-05-16T00:38:09;11.20;;;6.90;;
26484;SDS011;18083;50.560;7.262;2023-05-16T00:40:37;9.68;;;6.62;;
26484;SDS011;18083;50.560;7.262;2023-05-16T00:43:04;10.37;;;6.43;;
26484;SDS011;18083;50.560;7.262;2023-05-16T00:45:31;12.03;;;6.58;;
26484;SDS011;18083;50.560;7.262;2023-05-16T00:47:58;10.40;;;6.10;;
26484;SDS011;18083;50.560;7.262;2023-05-16T00:50:26;12.63;;;5.33;;
26484;SDS011;18083;50.560;7.262;2023-05-16T00:52:53;9.48;;;6.87;;
26484;SDS011;18083;50.560;7.262;2023-05-16T00:55:21;14.55;;;7.65;;
26484;SDS011;18083;50.560;7.262;2023-05-16T00:57:48;9.80;;;5.70;;
26484;SDS011;18083;50.560;7.262;2023-05-16T01:00:16;8.45;;;5.50;;
26484;SDS011;18083;50.560;7.262;2023-05-16T01:02:45;8.23;;;5.60;;
26484;SDS011;18083;50.560;7.262;2023-05-16T01:05:13;7.80;;;5.13;;
26484;SDS011;18083;50.560;7.262;2023-05-16T01:07:40;10.57;;;6.03;;
26484;SDS011;18083;50.560;7.262;2023-05-16T01:10:08;7.83;;;5.23;;
26484;SDS011;18083;50.560;7.262;2023-05-16T01:12:47;7.13;;;5.13;;
26484;SDS011;18083;50.560;7.262;2023-05-16T01:28:16;6.63;;;3.80;;
26484;SDS011;18083;50.560;7.262;2023-05-16T01:30:44;5.85;;;3.50;;
26484;SDS011;18083;50.560;7.262;2023-05-16T01:33:11;5.83;;;3.87;;
26484;SDS011;18083;50.560;7.262;2023-05-16T01:35:42;7.10;;;4.28;;
26484;SDS011;18083;50.560;7.262;2023-05-16T01:40:55;5.20;;;3.50;;
26484;SDS011;18083;50.560;7.262;2023-05-16T01:43:28;7.27;;;3.63;;
26484;SDS011;18083;50.560;7.262;2023-05-16T01:45:54;5.43;;;3.40;;
26484;SDS011;18083;50.560;7.262;2023-05-16T01:48:21;4.87;;;3.60;;
26484;SDS011;18083;50.560;7.262;2023-05-16T01:50:53;3.23;;;2.93;;
26484;SDS011;18083;50.560;7.262;2023-05-16T01:53:19;4.50;;;3.03;;
26484;SDS011;18083;50.560;7.262;2023-05-16T01:55:48;3.45;;;3.10;;
26484;SDS011;18083;50.560;7.262;2023-05-16T01:58:16;6.12;;;3.90;;
26484;SDS011;18083;50.560;7.262;2023-05-16T02:00:44;4.70;;;3.27;;
26484;SDS011;18083;50.560;7.262;2023-05-16T02:03:11;5.00;;;3.22;;
26484;SDS011;18083;50.560;7.262;2023-05-16T02:05:39;4.13;;;2.93;;
26484;SDS011;18083;50.560;7.262;2023-05-16T02:08:07;5.47;;;3.80;;
26484;SDS011;18083;50.560;7.262;2023-05-16T02:10:34;2.77;;;2.45;;
26484;SDS011;18083;50.560;7.262;2023-05-16T02:13:01;4.60;;;3.17;;
26484;SDS011;18083;50.560;7.262;2023-05-16T02:15:28;4.95;;;3.40;;
26484;SDS011;18083;50.560;7.262;2023-05-16T02:17:56;6.73;;;3.83;;
26484;SDS011;18083;50.560;7.262;2023-05-16T02:20:23;7.87;;;4.20;;
26484;SDS011;18083;50.560;7.262;2023-05-16T02:22:51;8.43;;;5.05;;
26484;SDS011;18083;50.560;7.262;2023-05-16T02:25:18;8.80;;;5.83;;
26484;SDS011;18083;50.560;7.262;2023-05-16T02:27:45;7.90;;;5.83;;
26484;SDS011;18083;50.560;7.262;2023-05-16T02:30:13;11.53;;;6.67;;
26484;SDS011;18083;50.560;7.262;2023-05-16T02:32:40;8.77;;;6.03;;
26484;SDS011;18083;50.560;7.262;2023-05-16T02:35:09;12.07;;;7.30;;
26484;SDS011;18083;50.560;7.262;2023-05-16T02:37:37;8.10;;;6.20;;
26484;SDS011;18083;50.560;7.262;2023-05-16T02:40:04;8.15;;;6.35;;
26484;SDS011;18083;50.560;7.262;2023-05-16T02:42:33;10.25;;;6.83;;
26484;SDS011;18083;50.560;7.262;2023-05-16T02:45:00;9.60;;;6.73;;
26484;SDS011;18083;50.560;7.262;2023-05-16T02:47:27;9.37;;;7.00;;
26484;SDS011;18083;50.560;7.262;2023-05-16T02:49:54;9.67;;;6.80;;
26484;SDS011;18083;50.560;7.262;2023-05-16T02:52:22;10.47;;;7.73;;
26484;SDS011;18083;50.560;7.262;2023-05-16T02:54:49;11.57;;;7.73;;
26484;SDS011;18083;50.560;7.262;2023-05-16T02:57:17;7.57;;;6.27;;
26484;SDS011;18083;50.560;7.262;2023-05-16T02:59:44;6.83;;;5.35;;
26484;SDS011;18083;50.560;7.262;2023-05-16T03:02:11;10.43;;;6.33;;
26484;SDS011;18083;50.560;7.262;2023-05-16T03:04:39;14.70;;;6.43;;
26484;SDS011;18083;50.560;7.262;2023-05-16T03:07:06;11.13;;;6.67;;
26484;SDS011;18083;50.560;7.262;2023-05-16T03:09:33;8.97;;;7.10;;
26484;SDS011;18083;50.560;7.262;2023-05-16T03:14:48;12.20;;;8.17;;
26484;SDS011;18083;50.560;7.262;2023-05-16T03:42:25;9.97;;;7.00;;
26484;SDS011;18083;50.560;7.262;2023-05-16T04:04:38;7.80;;;6.20;;
26484;SDS011;18083;50.560;7.262;2023-05-16T04:15:45;6.93;;;5.83;;
26484;SDS011;18083;50.560;7.262;2023-05-16T04:18:12;9.33;;;6.03;;
26484;SDS011;18083;50.560;7.262;2023-05-16T04:29:52;10.30;;;5.63;;
26484;SDS011;18083;50.560;7.262;2023-05-16T04:32:47;8.70;;;6.10;;
26484;SDS011;18083;50.560;7.262;2023-05-16T04:38:29;7.90;;;5.63;;
26484;SDS011;18083;50.560;7.262;2023-05-16T04:41:12;15.57;;;6.47;;
26484;SDS011;18083;50.560;7.262;2023-05-16T04:44:45;10.60;;;5.63;;
26484;SDS011;18083;50.560;7.262;2023-05-16T04:49:20;11.47;;;6.47;;
26484;SDS011;18083;50.560;7.262;2023-05-16T04:52:07;14.67;;;6.93;;
26484;SDS011;18083;50.560;7.262;2023-05-16T04:54:37;13.17;;;6.67;;
26484;SDS011;18083;50.560;7.262;2023-05-16T04:57:13;13.13;;;5.73;;
26484;SDS011;18083;50.560;7.262;2023-05-16T04:59:39;12.30;;;4.90;;
26484;SDS011;18083;50.560;7.262;2023-05-16T05:02:14;6.73;;;5.03;;
26484;SDS011;18083;50.560;7.262;2023-05-16T05:04:55;7.43;;;4.80;;
26484;SDS011;18083;50.560;7.262;2023-05-16T05:07:24;11.70;;;4.97;;
26484;SDS011;18083;50.560;7.262;2023-05-16T05:09:56;6.27;;;5.03;;
26484;SDS011;18083;50.560;7.262;2023-05-16T05:12:34;9.30;;;5.00;;
26484;SDS011;18083;50.560;7.262;2023-05-16T05:15:02;11.57;;;5.07;;
26484;SDS011;18083;50.560;7.262;2023-05-16T05:17:28;11.70;;;5.77;;
26484;SDS011;18083;50.560;7.262;2023-05-16T05:19:59;9.27;;;5.13;;
26484;SDS011;18083;50.560;7.262;2023-05-16T05:22:26;8.80;;;5.17;;
26484;SDS011;18083;50.560;7.262;2023-05-16T05:24:53;9.87;;;5.87;;
26484;SDS011;18083;50.560;7.262;2023-05-16T05:27:34;13.83;;;6.20;;
26484;SDS011;18083;50.560;7.262;2023-05-16T05:30:02;12.00;;;6.77;;
26484;SDS011;18083;50.560;7.262;2023-05-16T05:32:29;14.80;;;6.97;;
26484;SDS011;18083;50.560;7.262;2023-05-16T05:34:57;17.83;;;9.47;;
26484;SDS011;18083;50.560;7.262;2023-05-16T05:37:25;18.20;;;10.60;;
26484;SDS011;18083;50.560;7.262;2023-05-16T05:39:52;21.97;;;10.60;;
26484;SDS011;18083;50.560;7.262;2023-05-16T05:42:19;25.17;;;11.27;;
26484;SDS011;18083;50.560;7.262;2023-05-16T05:44:47;26.87;;;11.97;;
26484;SDS011;18083;50.560;7.262;2023-05-16T05:47:14;24.73;;;13.30;;
26484;SDS011;18083;50.560;7.262;2023-05-16T05:49:41;22.53;;;9.83;;
26484;SDS011;18083;50.560;7.262;2023-05-16T05:52:09;34.60;;;11.73;;
26484;SDS011;18083;50.560;7.262;2023-05-16T05:54:36;26.23;;;11.90;;
26484;SDS011;18083;50.560;7.262;2023-05-16T05:57:03;21.17;;;11.47;;
26484;SDS011;18083;50.560;7.262;2023-05-16T05:59:31;19.60;;;10.10;;
26484;SDS011;18083;50.560;7.262;2023-05-16T06:01:58;19.67;;;10.03;;
26484;SDS011;18083;50.560;7.262;2023-05-16T06:04:25;17.13;;;10.80;;
26484;SDS011;18083;50.560;7.262;2023-05-16T06:06:53;23.53;;;11.17;;
26484;SDS011;18083;50.560;7.262;2023-05-16T06:09:20;20.30;;;9.43;;
26484;SDS011;18083;50.560;7.262;2023-05-16T06:11:48;18.53;;;7.93;;
26484;SDS011;18083;50.560;7.262;2023-05-16T06:14:15;20.80;;;10.13;;
26484;SDS011;18083;50.560;7.262;2023-05-16T06:16:42;20.17;;;8.03;;
26484;SDS011;18083;50.560;7.262;2023-05-16T06:19:10;20.10;;;8.20;;
26484;SDS011;18083;50.560;7.262;2023-05-16T06:21:39;18.93;;;9.47;;
26484;SDS011;18083;50.560;7.262;2023-05-16T06:24:06;11.40;;;6.73;;
26484;SDS011;18083;50.560;7.262;2023-05-16T06:26:34;18.80;;;7.33;;
26484;SDS011;18083;50.560;7.262;2023-05-16T06:29:01;14.47;;;7.23;;
26484;SDS011;18083;50.560;7.262;2023-05-16T06:31:29;16.10;;;7.33;;
26484;SDS011;18083;50.560;7.262;2023-05-16T06:33:56;18.13;;;7.07;;
26484;SDS011;18083;50.560;7.262;2023-05-16T06:36:24;19.63;;;6.83;;
26484;SDS011;18083;50.560;7.262;2023-05-16T06:38:51;18.83;;;6.83;;
26484;SDS011;18083;50.560;7.262;2023-05-16T06:41:18;12.63;;;6.43;;
26484;SDS011;18083;50.560;7.262;2023-05-16T06:43:46;12.60;;;6.10;;
26484;SDS011;18083;50.560;7.262;2023-05-16T06:46:14;16.43;;;7.53;;
26484;SDS011;18083;50.560;7.262;2023-05-16T06:48:41;14.57;;;6.13;;
26484;SDS011;18083;50.560;7.262;2023-05-16T06:51:09;21.30;;;6.43;;
26484;SDS011;18083;50.560;7.262;2023-05-16T06:53:36;20.53;;;6.10;;
26484;SDS011;18083;50.560;7.262;2023-05-16T06:56:03;20.80;;;8.20;;
26484;SDS011;18083;50.560;7.262;2023-05-16T06:58:31;13.83;;;6.13;;
26484;SDS011;18083;50.560;7.262;2023-05-16T07:00:58;15.97;;;6.10;;
26484;SDS011;18083;50.560;7.262;2023-05-16T07:03:25;12.57;;;5.10;;
26484;SDS011;18083;50.560;7.262;2023-05-16T07:05:52;16.77;;;6.63;;
26484;SDS011;18083;50.560;7.262;2023-05-16T07:08:20;15.60;;;4.90;;
26484;SDS011;18083;50.560;7.262;2023-05-16T07:10:48;17.47;;;6.07;;
26484;SDS011;18083;50.560;7.262;2023-05-16T07:13:15;10.20;;;5.70;;
26484;SDS011;18083;50.560;7.262;2023-05-16T07:15:42;10.57;;;4.30;;
26484;SDS011;18083;50.560;7.262;2023-05-16T07:18:10;10.23;;;4.73;;
26484;SDS011;18083;50.560;7.262;2023-05-16T07:20:37;14.77;;;4.80;;
26484;SDS011;18083;50.560;7.262;2023-05-16T07:23:04;14.73;;;4.23;;
26484;SDS011;18083;50.560;7.262;2023-05-16T07:25:31;9.53;;;3.33;;
26484;SDS011;18083;50.560;7.262;2023-05-16T07:27:59;12.10;;;4.33;;
26484;SDS011;18083;50.560;7.262;2023-05-16T07:30:26;10.10;;;3.57;;
26484;SDS011;18083;50.560;7.262;2023-05-16T07:32:54;14.30;;;5.43;;
26484;SDS011;18083;50.560;7.262;2023-05-16T07:35:21;11.53;;;4.80;;
26484;SDS011;18083;50.560;7.262;2023-05-16T07:37:49;10.88;;;5.00;;
26484;SDS011;18083;50.560;7.262;2023-05-16T07:40:16;9.37;;;5.60;;
26484;SDS011;18083;50.560;7.262;2023-05-16T07:42:45;7.92;;;4.58;;
26484;SDS011;18083;50.560;7.262;2023-05-16T07:45:12;13.50;;;5.40;;
26484;SDS011;18083;50.560;7.262;2023-05-16T07:47:40;12.18;;;4.22;;
26484;SDS011;18083;50.560;7.262;2023-05-16T07:50:07;6.92;;;4.33;;
26484;SDS011;18083;50.560;7.262;2023-05-16T07:52:35;14.20;;;4.33;;
26484;SDS011;18083;50.560;7.262;2023-05-16T07:55:02;11.97;;;7.65;;
26484;SDS011;18083;50.560;7.262;2023-05-16T07:57:29;12.47;;;4.43;;
26484;SDS011;18083;50.560;7.262;2023-05-16T07:59:57;16.82;;;6.28;;
26484;SDS011;18083;50.560;7.262;2023-05-16T08:02:24;12.35;;;5.03;;
26484;SDS011;18083;50.560;7.262;2023-05-16T08:04:53;9.88;;;4.60;;
26484;SDS011;18083;50.560;7.262;2023-05-16T08:07:21;13.45;;;3.77;;
26484;SDS011;18083;50.560;7.262;2023-05-16T08:09:48;7.28;;;3.70;;
26484;SDS011;18083;50.560;7.262;2023-05-16T08:12:16;7.15;;;2.60;;
26484;SDS011;18083;50.560;7.262;2023-05-16T08:14:43;18.17;;;3.75;;
26484;SDS011;18083;50.560;7.262;2023-05-16T08:17:10;10.20;;;2.65;;
26484;SDS011;18083;50.560;7.262;2023-05-16T08:19:38;4.12;;;2.62;;
26484;SDS011;18083;50.560;7.262;2023-05-16T08:22:05;6.85;;;2.90;;
26484;SDS011;18083;50.560;7.262;2023-05-16T08:24:33;8.10;;;3.62;;
26484;SDS011;18083;50.560;7.262;2023-05-16T08:27:01;7.37;;;2.50;;
26484;SDS011;18083;50.560;7.262;2023-05-16T08:29:28;8.48;;;1.98;;
26484;SDS011;18083;50.560;7.262;2023-05-16T08:31:57;8.20;;;2.55;;
26484;SDS011;18083;50.560;7.262;2023-05-16T08:34:24;4.87;;;2.40;;
26484;SDS011;18083;50.560;7.262;2023-05-16T08:36:51;7.55;;;2.47;;
26484;SDS011;18083;50.560;7.262;2023-05-16T08:39:19;5.22;;;1.80;;
26484;SDS011;18083;50.560;7.262;2023-05-16T08:41:47;6.40;;;2.17;;
26484;SDS011;18083;50.560;7.262;2023-05-16T08:44:14;3.98;;;2.20;;
26484;SDS011;18083;50.560;7.262;2023-05-16T08:46:48;11.65;;;2.90;;
26484;SDS011;18083;50.560;7.262;2023-05-16T08:49:15;6.40;;;2.33;;
26484;SDS011;18083;50.560;7.262;2023-05-16T08:51:42;5.30;;;2.55;;
26484;SDS011;18083;50.560;7.262;2023-05-16T08:54:10;5.15;;;2.27;;
26484;SDS011;18083;50.560;7.262;2023-05-16T08:56:40;6.12;;;2.22;;
26484;SDS011;18083;50.560;7.262;2023-05-16T08:59:08;4.75;;;2.42;;
26484;SDS011;18083;50.560;7.262;2023-05-16T09:01:36;5.05;;;1.87;;
26484;SDS011;18083;50.560;7.262;2023-05-16T09:04:05;7.37;;;2.67;;
26484;SDS011;18083;50.560;7.262;2023-05-16T09:06:32;8.03;;;2.58;;
26484;SDS011;18083;50.560;7.262;2023-05-16T09:08:59;5.70;;;2.05;;
26484;SDS011;18083;50.560;7.262;2023-05-16T09:11:27;9.18;;;2.83;;
26484;SDS011;18083;50.560;7.262;2023-05-16T09:13:55;9.50;;;3.22;;
26484;SDS011;18083;50.560;7.262;2023-05-16T09:16:22;5.12;;;1.90;;
26484;SDS011;18083;50.560;7.262;2023-05-16T09:18:53;3.77;;;1.52;;
26484;SDS011;18083;50.560;7.262;2023-05-16T09:21:22;7.00;;;1.70;;
26484;SDS011;18083;50.560;7.262;2023-05-16T09:23:49;5.58;;;1.70;;
26484;SDS011;18083;50.560;7.262;2023-05-16T09:26:17;4.15;;;1.55;;
26484;SDS011;18083;50.560;7.262;2023-05-16T09:28:44;2.27;;;1.27;;
26484;SDS011;18083;50.560;7.262;2023-05-16T09:31:24;5.67;;;1.45;;
26484;SDS011;18083;50.560;7.262;2023-05-16T09:33:55;3.67;;;1.12;;
26484;SDS011;18083;50.560;7.262;2023-05-16T09:36:22;3.30;;;1.60;;
26484;SDS011;18083;50.560;7.262;2023-05-16T09:38:50;6.25;;;1.98;;
26484;SDS011;18083;50.560;7.262;2023-05-16T09:41:17;3.20;;;1.00;;
26484;SDS011;18083;50.560;7.262;2023-05-16T09:43:45;4.30;;;1.62;;
26484;SDS011;18083;50.560;7.262;2023-05-16T09:46:15;3.08;;;1.65;;
26484;SDS011;18083;50.560;7.262;2023-05-16T09:48:45;6.40;;;1.50;;
26484;SDS011;18083;50.560;7.262;2023-05-16T09:51:12;6.65;;;1.67;;
26484;SDS011;18083;50.560;7.262;2023-05-16T09:53:40;10.58;;;1.62;;
26484;SDS011;18083;50.560;7.262;2023-05-16T09:56:10;2.83;;;1.00;;
26484;SDS011;18083;50.560;7.262;2023-05-16T09:58:39;3.27;;;1.12;;
26484;SDS011;18083;50.560;7.262;2023-05-16T10:01:07;4.60;;;1.32;;
26484;SDS011;18083;50.560;7.262;2023-05-16T10:03:35;3.47;;;1.17;;
26484;SDS011;18083;50.560;7.262;2023-05-16T10:06:03;5.03;;;1.30;;
26484;SDS011;18083;50.560;7.262;2023-05-16T10:08:31;6.85;;;1.55;;
26484;SDS011;18083;50.560;7.262;2023-05-16T10:11:02;2.33;;;1.70;;
26484;SDS011;18083;50.560;7.262;2023-05-16T10:13:31;2.62;;;1.55;;
26484;SDS011;18083;50.560;7.262;2023-05-16T10:15:59;3.55;;;1.20;;
26484;SDS011;18083;50.560;7.262;2023-05-16T10:18:28;6.05;;;1.57;;
26484;SDS011;18083;50.560;7.262;2023-05-16T10:20:56;11.90;;;1.70;;
26484;SDS011;18083;50.560;7.262;2023-05-16T10:23:24;3.17;;;1.80;;
26484;SDS011;18083;50.560;7.262;2023-05-16T10:25:51;6.70;;;1.95;;
26484;SDS011;18083;50.560;7.262;2023-05-16T10:28:19;6.42;;;1.70;;
26484;SDS011;18083;50.560;7.262;2023-05-16T10:30:47;5.87;;;1.37;;
26484;SDS011;18083;50.560;7.262;2023-05-16T10:33:15;2.98;;;1.72;;
26484;SDS011;18083;50.560;7.262;2023-05-16T10:35:43;6.17;;;2.05;;
26484;SDS011;18083;50.560;7.262;2023-05-16T10:38:10;2.98;;;1.62;;
26484;SDS011;18083;50.560;7.262;2023-05-16T10:40:38;6.67;;;2.15;;
26484;SDS011;18083;50.560;7.262;2023-05-16T10:43:06;3.92;;;1.30;;
26484;SDS011;18083;50.560;7.262;2023-05-16T10:45:34;7.03;;;1.60;;
26484;SDS011;18083;50.560;7.262;2023-05-16T10:48:03;5.65;;;1.75;;
26484;SDS011;18083;50.560;7.262;2023-05-16T10:50:32;5.87;;;2.47;;
26484;SDS011;18083;50.560;7.262;2023-05-16T10:58:23;6.10;;;1.55;;
26484;SDS011;18083;50.560;7.262;2023-05-16T11:03:36;3.70;;;1.40;;
26484;SDS011;18083;50.560;7.262;2023-05-16T11:06:03;5.67;;;1.37;;
26484;SDS011;18083;50.560;7.262;2023-05-16T11:08:33;2.83;;;1.35;;
26484;SDS011;18083;50.560;7.262;2023-05-16T11:13:55;8.73;;;2.37;;
26484;SDS011;18083;50.560;7.262;2023-05-16T11:16:25;5.03;;;1.82;;
26484;SDS011;18083;50.560;7.262;2023-05-16T11:18:53;7.03;;;1.50;;
26484;SDS011;18083;50.560;7.262;2023-05-16T11:21:21;7.17;;;1.40;;
26484;SDS011;18083;50.560;7.262;2023-05-16T11:24:26;10.72;;;1.70;;
26484;SDS011;18083;50.560;7.262;2023-05-16T11:26:17;4.30;;;1.42;;
26484;SDS011;18083;50.560;7.262;2023-05-16T11:28:44;5.17;;;1.45;;
26484;SDS011;18083;50.560;7.262;2023-05-16T11:31:13;5.75;;;1.95;;
26484;SDS011;18083;50.560;7.262;2023-05-16T11:33:41;7.03;;;1.92;;
26484;SDS011;18083;50.560;7.262;2023-05-16T11:36:11;4.37;;;1.30;;
26484;SDS011;18083;50.560;7.262;2023-05-16T11:38:38;3.80;;;1.57;;
26484;SDS011;18083;50.560;7.262;2023-05-16T11:41:07;2.67;;;1.60;;
26484;SDS011;18083;50.560;7.262;2023-05-16T11:43:42;2.30;;;1.42;;
26484;SDS011;18083;50.560;7.262;2023-05-16T11:46:13;3.85;;;2.30;;
26484;SDS011;18083;50.560;7.262;2023-05-16T11:48:41;5.70;;;1.90;;
26484;SDS011;18083;50.560;7.262;2023-05-16T11:51:10;4.72;;;1.77;;
26484;SDS011;18083;50.560;7.262;2023-05-16T11:53:39;3.77;;;1.85;;
26484;SDS011;18083;50.560;7.262;2023-05-16T11:56:07;2.37;;;1.55;;
26484;SDS011;18083;50.560;7.262;2023-05-16T11:58:35;7.62;;;1.50;;
26484;SDS011;18083;50.560;7.262;2023-05-16T12:01:03;1.75;;;1.45;;
26484;SDS011;18083;50.560;7.262;2023-05-16T12:03:31;3.42;;;1.92;;
26484;SDS011;18083;50.560;7.262;2023-05-16T12:06:00;3.62;;;1.67;;
26484;SDS011;18083;50.560;7.262;2023-05-16T12:08:27;5.25;;;1.57;;
26484;SDS011;18083;50.560;7.262;2023-05-16T12:10:55;2.22;;;1.02;;
26484;SDS011;18083;50.560;7.262;2023-05-16T12:13:23;2.95;;;1.05;;
26484;SDS011;18083;50.560;7.262;2023-05-16T12:15:51;2.83;;;0.98;;
26484;SDS011;18083;50.560;7.262;2023-05-16T12:18:19;3.10;;;1.60;;
26484;SDS011;18083;50.560;7.262;2023-05-16T12:20:46;4.28;;;2.15;;
26484;SDS011;18083;50.560;7.262;2023-05-16T12:23:14;3.20;;;1.45;;
26484;SDS011;18083;50.560;7.262;2023-05-16T12:25:45;3.35;;;1.47;;
26484;SDS011;18083;50.560;7.262;2023-05-16T12:28:14;4.95;;;1.40;;
26484;SDS011;18083;50.560;7.262;2023-05-16T12:30:43;4.42;;;1.20;;
26484;SDS011;18083;50.560;7.262;2023-05-16T12:33:12;5.22;;;2.58;;
26484;SDS011;18083;50.560;7.262;2023-05-16T12:35:41;3.10;;;1.50;;
26484;SDS011;18083;50.560;7.262;2023-05-16T12:38:10;3.98;;;1.67;;
26484;SDS011;18083;50.560;7.262;2023-05-16T12:40:38;3.58;;;1.55;;
26484;SDS011;18083;50.560;7.262;2023-05-16T12:43:12;3.87;;;1.92;;
26484;SDS011;18083;50.560;7.262;2023-05-16T12:45:39;4.65;;;1.50;;
26484;SDS011;18083;50.560;7.262;2023-05-16T12:48:11;3.02;;;1.50;;
26484;SDS011;18083;50.560;7.262;2023-05-16T12:50:39;3.33;;;1.65;;
26484;SDS011;18083;50.560;7.262;2023-05-16T12:53:12;3.60;;;1.20;;
26484;SDS011;18083;50.560;7.262;2023-05-16T12:55:40;3.72;;;1.60;;
26484;SDS011;18083;50.560;7.262;2023-05-16T12:58:08;4.53;;;1.67;;
26484;SDS011;18083;50.560;7.262;2023-05-16T13:00:36;3.25;;;1.92;;
26484;SDS011;18083;50.560;7.262;2023-05-16T13:03:04;4.15;;;1.70;;
26484;SDS011;18083;50.560;7.262;2023-05-16T13:05:32;4.05;;;1.85;;
26484;SDS011;18083;50.560;7.262;2023-05-16T13:08:01;2.72;;;2.47;;
26484;SDS011;18083;50.560;7.262;2023-05-16T13:10:28;7.40;;;2.10;;
26484;SDS011;18083;50.560;7.262;2023-05-16T13:12:55;2.70;;;1.85;;
26484;SDS011;18083;50.560;7.262;2023-05-16T13:15:25;3.87;;;1.70;;
26484;SDS011;18083;50.560;7.262;2023-05-16T13:17:52;4.50;;;1.90;;
26484;SDS011;18083;50.560;7.262;2023-05-16T13:20:19;6.58;;;1.70;;
26484;SDS011;18083;50.560;7.262;2023-05-16T13:22:47;5.17;;;1.87;;
26484;SDS011;18083;50.560;7.262;2023-05-16T13:25:14;6.30;;;1.92;;
26484;SDS011;18083;50.560;7.262;2023-05-16T13:27:41;4.30;;;1.65;;
26484;SDS011;18083;50.560;7.262;2023-05-16T13:30:09;3.33;;;1.75;;
26484;SDS011;18083;50.560;7.262;2023-05-16T13:32:36;3.15;;;1.80;;
26484;SDS011;18083;50.560;7.262;2023-05-16T13:35:04;4.37;;;1.85;;
26484;SDS011;18083;50.560;7.262;2023-05-16T13:37:31;3.10;;;1.82;;
26484;SDS011;18083;50.560;7.262;2023-05-16T13:39:58;4.72;;;1.87;;
26484;SDS011;18083;50.560;7.262;2023-05-16T13:42:26;2.75;;;1.57;;
26484;SDS011;18083;50.560;7.262;2023-05-16T13:44:53;3.77;;;1.32;;
26484;SDS011;18083;50.560;7.262;2023-05-16T13:47:20;3.92;;;1.65;;
26484;SDS011;18083;50.560;7.262;2023-05-16T13:49:48;4.50;;;1.42;;
26484;SDS011;18083;50.560;7.262;2023-05-16T13:52:17;3.25;;;2.05;;
26484;SDS011;18083;50.560;7.262;2023-05-16T13:54:45;1.22;;;1.07;;
26484;SDS011;18083;50.560;7.262;2023-05-16T13:57:12;1.47;;;0.95;;
26484;SDS011;18083;50.560;7.262;2023-05-16T13:59:39;6.95;;;1.22;;
26484;SDS011;18083;50.560;7.262;2023-05-16T14:02:08;2.85;;;1.22;;
26484;SDS011;18083;50.560;7.262;2023-05-16T14:04:35;1.50;;;1.10;;
26484;SDS011;18083;50.560;7.262;2023-05-16T14:07:02;3.98;;;1.30;;
26484;SDS011;18083;50.560;7.262;2023-05-16T14:09:29;6.03;;;1.10;;
26484;SDS011;18083;50.560;7.262;2023-05-16T14:11:58;3.08;;;1.70;;
26484;SDS011;18083;50.560;7.262;2023-05-16T14:14:27;1.22;;;1.12;;
26484;SDS011;18083;50.560;7.262;2023-05-16T14:16:55;1.30;;;1.15;;
26484;SDS011;18083;50.560;7.262;2023-05-16T14:19:22;2.42;;;1.30;;
26484;SDS011;18083;50.560;7.262;2023-05-16T14:21:49;4.55;;;1.67;;
26484;SDS011;18083;50.560;7.262;2023-05-16T14:24:17;2.67;;;1.80;;
26484;SDS011;18083;50.560;7.262;2023-05-16T14:26:44;5.92;;;1.52;;
26484;SDS011;18083;50.560;7.262;2023-05-16T14:29:11;4.90;;;1.82;;
26484;SDS011;18083;50.560;7.262;2023-05-16T14:31:39;6.72;;;1.40;;
26484;SDS011;18083;50.560;7.262;2023-05-16T14:34:06;2.33;;;1.27;;
26484;SDS011;18083;50.560;7.262;2023-05-16T14:36:34;2.58;;;1.50;;
26484;SDS011;18083;50.560;7.262;2023-05-16T14:39:01;2.10;;;1.35;;
26484;SDS011;18083;50.560;7.262;2023-05-16T14:41:29;3.62;;;1.45;;
26484;SDS011;18083;50.560;7.262;2023-05-16T14:43:56;2.55;;;1.62;;
26484;SDS011;18083;50.560;7.262;2023-05-16T14:46:23;2.27;;;0.98;;
26484;SDS011;18083;50.560;7.262;2023-05-16T14:48:51;3.37;;;1.00;;
26484;SDS011;18083;50.560;7.262;2023-05-16T14:51:18;5.05;;;1.30;;
26484;SDS011;18083;50.560;7.262;2023-05-16T14:53:45;2.15;;;1.20;;
26484;SDS011;18083;50.560;7.262;2023-05-16T14:56:13;3.30;;;1.40;;
26484;SDS011;18083;50.560;7.262;2023-05-16T14:58:40;1.75;;;1.10;;
26484;SDS011;18083;50.560;7.262;2023-05-16T15:01:07;4.78;;;1.57;;
26484;SDS011;18083;50.560;7.262;2023-05-16T15:03:35;1.95;;;1.10;;
26484;SDS011;18083;50.560;7.262;2023-05-16T15:06:03;1.22;;;0.82;;
26484;SDS011;18083;50.560;7.262;2023-05-16T15:08:32;3.37;;;1.10;;
26484;SDS011;18083;50.560;7.262;2023-05-16T15:11:00;4.15;;;1.22;;
26484;SDS011;18083;50.560;7.262;2023-05-16T15:13:27;2.90;;;1.22;;
26484;SDS011;18083;50.560;7.262;2023-05-16T15:15:57;2.10;;;1.00;;
26484;SDS011;18083;50.560;7.262;2023-05-16T15:18:26;2.83;;;1.00;;
26484;SDS011;18083;50.560;7.262;2023-05-16T15:20:53;4.78;;;1.32;;
26484;SDS011;18083;50.560;7.262;2023-05-16T15:23:21;2.05;;;1.17;;
26484;SDS011;18083;50.560;7.262;2023-05-16T15:25:50;3.02;;;1.02;;
26484;SDS011;18083;50.560;7.262;2023-05-16T15:28:18;1.55;;;0.68;;
26484;SDS011;18083;50.560;7.262;2023-05-16T15:30:45;3.37;;;1.00;;
26484;SDS011;18083;50.560;7.262;2023-05-16T15:33:12;4.08;;;1.07;;
26484;SDS011;18083;50.560;7.262;2023-05-16T15:35:40;1.40;;;1.10;;
26484;SDS011;18083;50.560;7.262;2023-05-16T15:38:08;1.40;;;0.82;;
26484;SDS011;18083;50.560;7.262;2023-05-16T15:40:35;1.20;;;0.90;;
26484;SDS011;18083;50.560;7.262;2023-05-16T15:43:02;3.80;;;1.00;;
26484;SDS011;18083;50.560;7.262;2023-05-16T15:45:29;1.52;;;1.40;;
26484;SDS011;18083;50.560;7.262;2023-05-16T15:47:57;2.02;;;1.10;;
26484;SDS011;18083;50.560;7.262;2023-05-16T15:50:24;0.95;;;0.90;;
26484;SDS011;18083;50.560;7.262;2023-05-16T15:52:52;1.47;;;1.22;;
26484;SDS011;18083;50.560;7.262;2023-05-16T15:55:19;4.05;;;1.42;;
26484;SDS011;18083;50.560;7.262;2023-05-16T15:57:47;5.17;;;2.00;;
26484;SDS011;18083;50.560;7.262;2023-05-16T16:00:14;4.25;;;1.50;;
26484;SDS011;18083;50.560;7.262;2023-05-16T16:02:42;3.15;;;1.42;;
26484;SDS011;18083;50.560;7.262;2023-05-16T16:05:10;2.47;;;1.20;;
26484;SDS011;18083;50.560;7.262;2023-05-16T16:07:37;4.37;;;1.32;;
26484;SDS011;18083;50.560;7.262;2023-05-16T16:10:05;5.95;;;1.40;;
26484;SDS011;18083;50.560;7.262;2023-05-16T16:12:33;1.87;;;1.22;;
26484;SDS011;18083;50.560;7.262;2023-05-16T16:15:05;4.42;;;1.42;;
26484;SDS011;18083;50.560;7.262;2023-05-16T16:17:32;1.65;;;1.40;;
26484;SDS011;18083;50.560;7.262;2023-05-16T16:20:00;3.33;;;1.10;;
26484;SDS011;18083;50.560;7.262;2023-05-16T16:22:27;7.20;;;1.17;;
26484;SDS011;18083;50.560;7.262;2023-05-16T16:24:55;3.75;;;1.27;;
26484;SDS011;18083;50.560;7.262;2023-05-16T16:27:22;4.03;;;1.90;;